createdAt,value
2017-12-26T00:01:15.612Z,4.40
2017-12-26T00:03:43.093Z,4.40
2017-12-26T00:06:11.514Z,4.40
2017-12-26T00:08:39.108Z,4.30
2017-12-26T00:11:06.745Z,4.40
2017-12-26T00:13:34.223Z,4.40
2017-12-26T00:16:01.901Z,4.40
2017-12-26T00:18:29.421Z,4.30
2017-12-26T00:20:56.914Z,4.40
2017-12-26T00:23:24.473Z,4.40
2017-12-26T00:25:52.040Z,4.40
2017-12-26T00:28:19.492Z,4.30
2017-12-26T00:30:47.747Z,4.10
2017-12-26T00:33:15.205Z,4.10
2017-12-26T00:35:42.682Z,4.10
2017-12-26T00:38:10.137Z,4.00
2017-12-26T00:40:37.715Z,4.00
2017-12-26T00:43:05.204Z,4.00
2017-12-26T00:45:32.865Z,3.90
2017-12-26T00:48:00.390Z,3.90
2017-12-26T00:50:28.616Z,3.90
2017-12-26T00:52:56.182Z,3.90
2017-12-26T00:55:23.717Z,3.90
2017-12-26T00:57:51.289Z,3.90
2017-12-26T01:00:18.752Z,3.90
2017-12-26T01:02:46.234Z,3.90
2017-12-26T01:05:13.689Z,3.90
2017-12-26T01:07:41.161Z,3.90
2017-12-26T01:10:09.436Z,3.90
2017-12-26T01:12:36.955Z,3.90
2017-12-26T01:15:04.425Z,3.80
2017-12-26T01:17:32.375Z,3.90
2017-12-26T01:19:59.994Z,3.80
2017-12-26T01:22:28.225Z,3.80
2017-12-26T01:24:55.703Z,3.80
2017-12-26T01:27:23.149Z,3.90
2017-12-26T01:29:52.145Z,3.80
2017-12-26T01:32:19.613Z,3.80
2017-12-26T01:34:47.085Z,3.90
2017-12-26T01:37:15.324Z,3.80
2017-12-26T01:39:42.797Z,3.80
2017-12-26T01:42:10.272Z,3.90
2017-12-26T01:44:38.525Z,3.90
2017-12-26T01:47:05.981Z,3.90
2017-12-26T01:49:33.458Z,3.90
2017-12-26T01:52:01.780Z,4.00
2017-12-26T01:54:29.238Z,4.00
2017-12-26T01:56:56.741Z,4.00
2017-12-26T01:59:24.296Z,4.00
2017-12-26T02:01:51.772Z,4.00
2017-12-26T02:04:20.079Z,4.10
2017-12-26T02:06:47.540Z,4.00
2017-12-26T02:09:14.995Z,4.10
2017-12-26T02:11:42.494Z,4.10
2017-12-26T02:14:09.946Z,4.10
2017-12-26T02:16:37.409Z,4.10
2017-12-26T02:19:04.916Z,4.10
2017-12-26T02:21:32.531Z,4.20
2017-12-26T02:24:00.086Z,4.20
2017-12-26T02:26:27.652Z,4.20
2017-12-26T02:28:55.113Z,4.20
2017-12-26T02:31:23.330Z,4.40
2017-12-26T02:33:50.797Z,4.40
2017-12-26T02:36:18.258Z,4.40
2017-12-26T02:38:45.727Z,4.40
2017-12-26T02:41:13.181Z,4.50
2017-12-26T02:43:40.868Z,4.60
2017-12-26T02:46:08.375Z,4.70
2017-12-26T02:48:35.977Z,4.90
2017-12-26T02:51:03.463Z,5.10
2017-12-26T02:53:31.689Z,5.30
2017-12-26T02:55:59.181Z,5.30
2017-12-26T02:58:26.632Z,5.50
2017-12-26T03:00:54.105Z,5.60
2017-12-26T03:03:22.588Z,5.80
2017-12-26T03:05:50.820Z,5.90
2017-12-26T03:08:18.379Z,5.90
2017-12-26T03:10:45.848Z,6.00
2017-12-26T03:13:13.316Z,6.10
2017-12-26T03:15:40.777Z,6.10
2017-12-26T03:18:08.999Z,6.20
2017-12-26T03:20:36.478Z,6.20
2017-12-26T03:23:04.138Z,6.20
2017-12-26T03:25:31.625Z,6.30
2017-12-26T03:27:59.091Z,6.30
2017-12-26T03:30:27.330Z,6.30
2017-12-26T03:32:54.810Z,6.30
2017-12-26T03:35:22.269Z,6.00
2017-12-26T03:37:49.807Z,5.70
2017-12-26T03:40:17.269Z,5.60
2017-12-26T03:42:44.737Z,5.50
2017-12-26T03:45:12.269Z,5.50
2017-12-26T03:47:39.745Z,5.50
2017-12-26T03:50:07.221Z,5.50
2017-12-26T03:52:34.680Z,5.50
2017-12-26T03:55:02.905Z,5.50
2017-12-26T03:57:30.375Z,5.50
2017-12-26T03:59:57.828Z,5.50
2017-12-26T04:02:25.336Z,5.50
2017-12-26T04:04:53.656Z,5.70
2017-12-26T04:07:21.142Z,5.70
2017-12-26T04:09:48.622Z,5.90
2017-12-26T04:12:16.853Z,6.20
2017-12-26T04:14:44.338Z,6.20
2017-12-26T04:17:11.801Z,6.30
2017-12-26T04:19:40.038Z,6.20
2017-12-26T04:22:07.498Z,6.20
2017-12-26T04:24:34.967Z,6.20
2017-12-26T04:27:02.413Z,6.20
2017-12-26T04:29:29.944Z,6.20
2017-12-26T04:31:57.604Z,6.20
2017-12-26T04:34:25.170Z,6.20
2017-12-26T04:36:52.682Z,6.30
2017-12-26T04:39:20.921Z,6.40
2017-12-26T04:41:48.377Z,6.40
2017-12-26T04:44:15.844Z,6.50
2017-12-26T04:46:43.295Z,6.50
2017-12-26T04:49:10.766Z,6.60
2017-12-26T04:51:38.233Z,6.70
2017-12-26T04:54:05.765Z,6.70
2017-12-26T04:56:33.243Z,6.70
2017-12-26T04:59:00.696Z,6.70
2017-12-26T05:01:28.780Z,6.80
2017-12-26T05:03:56.243Z,6.80
2017-12-26T05:06:24.480Z,6.80
2017-12-26T05:08:52.020Z,6.80
2017-12-26T05:11:19.497Z,6.80
2017-12-26T05:13:46.952Z,6.80
2017-12-26T05:16:14.425Z,6.80
2017-12-26T05:18:41.886Z,6.80
2017-12-26T05:21:09.369Z,6.80
2017-12-26T05:23:37.604Z,6.90
2017-12-26T05:26:05.070Z,6.90
2017-12-26T05:28:32.546Z,6.90
2017-12-26T05:31:00.936Z,6.90
2017-12-26T05:33:29.188Z,6.80
2017-12-26T05:35:57.624Z,6.80
2017-12-26T05:38:25.283Z,6.80
2017-12-26T05:40:52.880Z,6.80
2017-12-26T05:43:20.471Z,6.70
2017-12-26T05:45:48.709Z,6.80
2017-12-26T05:48:16.174Z,6.70
2017-12-26T05:50:43.645Z,6.80
2017-12-26T05:53:11.878Z,6.90
2017-12-26T05:55:39.485Z,6.90
2017-12-26T05:58:07.707Z,7.00
2017-12-26T06:00:35.178Z,7.00
2017-12-26T06:03:02.648Z,7.10
2017-12-26T06:05:30.135Z,7.10
2017-12-26T06:07:58.954Z,7.20
2017-12-26T06:10:26.525Z,7.20
2017-12-26T06:12:53.980Z,7.20
2017-12-26T06:15:21.452Z,7.10
2017-12-26T06:17:48.935Z,7.10
2017-12-26T06:20:16.386Z,7.30
2017-12-26T06:22:43.876Z,7.40
2017-12-26T06:25:12.124Z,7.30
2017-12-26T06:27:39.603Z,7.30
2017-12-26T06:30:07.833Z,7.30
2017-12-26T06:32:35.303Z,7.30
2017-12-26T06:35:02.819Z,7.30
2017-12-26T06:37:30.281Z,7.30
2017-12-26T06:39:57.888Z,7.20
2017-12-26T06:42:26.896Z,7.20
2017-12-26T06:44:54.358Z,7.20
2017-12-26T06:47:22.580Z,7.10
2017-12-26T06:49:50.061Z,7.10
2017-12-26T06:52:17.534Z,7.00
2017-12-26T06:54:45.005Z,7.10
2017-12-26T06:57:13.243Z,6.90
2017-12-26T06:59:40.723Z,6.90
2017-12-26T07:02:08.194Z,7.00
2017-12-26T07:04:36.434Z,6.90
2017-12-26T07:07:03.895Z,6.90
2017-12-26T07:09:31.386Z,6.80
2017-12-26T07:11:59.627Z,6.80
2017-12-26T07:14:27.924Z,6.70
2017-12-26T07:16:56.153Z,6.70
2017-12-26T07:19:29.396Z,6.70
2017-12-26T07:22:03.476Z,6.60
2017-12-26T07:24:31.027Z,6.60
2017-12-26T07:26:58.450Z,6.60
2017-12-26T07:29:25.967Z,6.60
2017-12-26T07:31:53.446Z,6.50
2017-12-26T07:34:21.681Z,6.50
2017-12-26T07:36:49.170Z,6.50
2017-12-26T07:39:17.396Z,6.50
2017-12-26T07:41:45.057Z,6.40
2017-12-26T07:44:12.641Z,6.40
2017-12-26T07:46:40.112Z,6.40
2017-12-26T07:49:09.088Z,6.40
2017-12-26T07:51:36.556Z,6.40
2017-12-26T07:54:04.028Z,6.40
2017-12-26T07:56:32.296Z,6.40
2017-12-26T07:58:59.766Z,6.30
2017-12-26T08:01:28.009Z,6.30
2017-12-26T08:03:55.472Z,6.30
2017-12-26T08:06:22.957Z,6.30
2017-12-26T08:08:51.216Z,6.30
2017-12-26T08:11:18.781Z,6.30
2017-12-26T08:13:47.021Z,6.30
2017-12-26T08:16:14.503Z,6.20
2017-12-26T08:18:41.964Z,6.20
2017-12-26T08:21:09.430Z,6.20
2017-12-26T08:23:37.769Z,6.20
2017-12-26T08:26:05.253Z,6.10
2017-12-26T08:28:32.830Z,6.20
2017-12-26T08:31:01.119Z,6.10
2017-12-26T08:33:29.237Z,6.10
2017-12-26T08:35:56.724Z,6.10
2017-12-26T08:38:24.233Z,6.10
2017-12-26T08:40:51.730Z,6.10
2017-12-26T08:43:19.210Z,6.10
2017-12-26T08:45:47.460Z,5.90
2017-12-26T08:48:14.931Z,5.90
2017-12-26T08:50:43.277Z,6.00
2017-12-26T08:53:10.761Z,5.90
2017-12-26T08:55:39.009Z,5.90
2017-12-26T08:58:06.489Z,5.90
2017-12-26T09:00:34.018Z,5.90
2017-12-26T09:03:01.592Z,5.90
2017-12-26T09:05:29.065Z,5.90
2017-12-26T09:07:56.527Z,5.90
2017-12-26T09:10:24.005Z,5.90
2017-12-26T09:12:51.504Z,5.90
2017-12-26T09:15:18.987Z,5.90
2017-12-26T09:17:46.548Z,5.90
2017-12-26T09:20:14.021Z,5.90
2017-12-26T09:22:42.286Z,5.90
2017-12-26T09:25:10.527Z,5.80
2017-12-26T09:27:38.161Z,5.80
2017-12-26T09:30:05.645Z,5.80
2017-12-26T09:32:33.158Z,5.80
2017-12-26T09:35:00.627Z,5.80
2017-12-26T09:37:28.107Z,5.90
2017-12-26T09:39:55.708Z,5.80
2017-12-26T09:42:23.193Z,5.80
2017-12-26T09:44:51.173Z,5.90
2017-12-26T09:47:18.753Z,5.90
2017-12-26T09:49:46.245Z,5.80
2017-12-26T09:52:13.731Z,5.90
2017-12-26T09:54:41.225Z,5.80
2017-12-26T09:57:09.336Z,5.90
2017-12-26T09:59:36.943Z,5.90
2017-12-26T10:02:05.214Z,5.90
2017-12-26T10:04:32.935Z,6.00
2017-12-26T10:07:00.444Z,5.90
2017-12-26T10:09:27.970Z,6.00
2017-12-26T10:11:56.205Z,6.00
2017-12-26T10:14:23.794Z,6.00
2017-12-26T10:16:51.401Z,6.00
2017-12-26T10:19:18.890Z,6.10
2017-12-26T10:21:46.369Z,6.10
2017-12-26T10:24:14.619Z,6.10
2017-12-26T10:26:42.398Z,6.10
2017-12-26T10:29:09.862Z,6.20
2017-12-26T10:31:37.382Z,6.20
2017-12-26T10:34:04.969Z,6.20
2017-12-26T10:36:32.662Z,6.20
2017-12-26T10:39:00.159Z,6.20
2017-12-26T10:41:27.764Z,6.30
2017-12-26T10:43:56.208Z,6.30
2017-12-26T10:46:23.818Z,6.30
2017-12-26T10:48:52.061Z,6.40
2017-12-26T10:51:19.701Z,6.40
2017-12-26T10:53:47.187Z,6.40
2017-12-26T10:56:14.675Z,6.40
2017-12-26T10:58:42.166Z,6.40
2017-12-26T11:01:09.655Z,6.40
2017-12-26T11:03:37.181Z,6.40
2017-12-26T11:06:04.785Z,6.50
2017-12-26T11:08:33.086Z,6.70
2017-12-26T11:11:00.723Z,6.70
2017-12-26T11:13:28.390Z,6.70
2017-12-26T11:15:56.644Z,6.80
2017-12-26T11:18:24.910Z,6.80
2017-12-26T11:20:52.388Z,6.80
2017-12-26T11:23:20.642Z,6.90
2017-12-26T11:25:48.209Z,6.90
2017-12-26T11:28:15.769Z,6.90
2017-12-26T11:30:43.238Z,7.00
2017-12-26T11:33:11.502Z,7.00
2017-12-26T11:35:38.971Z,7.00
2017-12-26T11:38:06.443Z,7.10
2017-12-26T11:40:34.776Z,7.10
2017-12-26T11:43:02.259Z,7.10
2017-12-26T11:45:29.850Z,7.10
2017-12-26T11:47:57.359Z,7.10
2017-12-26T11:50:24.834Z,7.10
2017-12-26T11:52:52.551Z,7.10
2017-12-26T11:55:20.030Z,7.10
2017-12-26T11:57:47.508Z,7.10
2017-12-26T12:00:14.998Z,7.20
2017-12-26T12:02:42.507Z,7.30
2017-12-26T12:05:09.982Z,7.40
2017-12-26T12:07:38.260Z,7.60
2017-12-26T12:10:06.505Z,7.60
2017-12-26T12:12:34.172Z,7.60
2017-12-26T12:15:01.691Z,7.70
2017-12-26T12:17:29.170Z,7.60
2017-12-26T12:19:56.719Z,7.60
2017-12-26T12:22:24.219Z,7.60
2017-12-26T12:24:52.500Z,7.60
2017-12-26T12:27:20.832Z,7.60
2017-12-26T12:29:48.334Z,7.60
2017-12-26T12:32:15.812Z,7.70
2017-12-26T12:34:44.064Z,7.60
2017-12-26T12:37:11.578Z,7.50
2017-12-26T12:39:39.065Z,7.50
2017-12-26T12:42:06.545Z,7.60
2017-12-26T12:44:34.066Z,7.90
2017-12-26T12:47:01.618Z,8.00
2017-12-26T12:49:29.204Z,8.00
2017-12-26T12:51:56.703Z,8.00
2017-12-26T12:54:24.958Z,8.00
2017-12-26T12:56:53.254Z,8.00
2017-12-26T12:59:20.743Z,7.90
2017-12-26T13:01:48.235Z,7.80
2017-12-26T13:04:15.822Z,7.70
2017-12-26T13:06:43.333Z,7.60
2017-12-26T13:09:10.997Z,7.60
2017-12-26T13:11:38.471Z,7.60
2017-12-26T13:14:06.745Z,7.60
2017-12-26T13:16:34.206Z,7.60
2017-12-26T13:19:02.173Z,7.60
2017-12-26T13:21:29.655Z,7.50
2017-12-26T13:23:57.170Z,7.60
2017-12-26T13:26:24.642Z,7.60
2017-12-26T13:28:52.726Z,7.60
2017-12-26T13:31:20.996Z,7.50
2017-12-26T13:33:49.243Z,7.50
2017-12-26T13:36:16.706Z,7.50
2017-12-26T13:38:44.176Z,7.50
2017-12-26T13:41:12.438Z,7.40
2017-12-26T13:43:39.891Z,7.40
2017-12-26T13:46:07.374Z,7.40
2017-12-26T13:48:35.601Z,7.40
2017-12-26T13:51:03.085Z,7.40
2017-12-26T13:53:30.556Z,7.40
2017-12-26T13:55:58.141Z,7.40
2017-12-26T13:58:26.556Z,7.40
2017-12-26T14:00:54.845Z,7.30
2017-12-26T14:03:22.325Z,7.30
2017-12-26T14:05:49.810Z,7.30
2017-12-26T14:08:17.321Z,7.30
2017-12-26T14:10:44.796Z,7.20
2017-12-26T14:13:13.895Z,7.10
2017-12-26T14:15:41.357Z,7.20
2017-12-26T14:18:08.833Z,7.20
2017-12-26T14:20:36.295Z,7.20
2017-12-26T14:23:03.758Z,7.20
2017-12-26T14:25:31.532Z,7.20
2017-12-26T14:27:59.011Z,7.20
2017-12-26T14:30:26.501Z,7.30
2017-12-26T14:32:53.963Z,7.30
2017-12-26T14:35:21.441Z,7.30
2017-12-26T14:37:48.933Z,7.30
2017-12-26T14:40:16.608Z,7.30
2017-12-26T14:42:44.084Z,7.30
2017-12-26T14:45:11.569Z,7.20
2017-12-26T14:47:39.824Z,7.20
2017-12-26T14:50:07.385Z,7.20
2017-12-26T14:52:34.948Z,7.20
2017-12-26T14:55:02.397Z,7.20
2017-12-26T14:57:29.862Z,7.20
2017-12-26T14:59:58.104Z,7.10
2017-12-26T15:02:25.691Z,7.10
2017-12-26T15:04:53.348Z,7.10
2017-12-26T15:07:20.897Z,7.10
2017-12-26T15:09:48.412Z,7.10
2017-12-26T15:12:15.961Z,7.10
2017-12-26T15:14:43.464Z,7.10
2017-12-26T15:17:10.954Z,7.10
2017-12-26T15:19:39.321Z,7.10
2017-12-26T15:22:06.796Z,7.10
2017-12-26T15:24:35.152Z,7.00
2017-12-26T15:27:02.636Z,7.00
2017-12-26T15:29:30.169Z,7.10
2017-12-26T15:31:57.816Z,7.10
2017-12-26T15:34:25.298Z,7.00
2017-12-26T15:36:53.556Z,7.00
2017-12-26T15:39:21.021Z,7.00
2017-12-26T15:41:48.486Z,7.00
2017-12-26T15:44:15.942Z,7.00
2017-12-26T15:46:44.265Z,7.00
2017-12-26T15:49:11.911Z,7.00
2017-12-26T15:51:40.715Z,7.00
2017-12-26T15:54:08.172Z,7.00
2017-12-26T15:56:35.776Z,7.00
2017-12-26T15:59:03.252Z,7.00
2017-12-26T16:01:31.501Z,7.00
2017-12-26T16:03:59.129Z,7.00
2017-12-26T16:06:26.582Z,6.90
2017-12-26T16:08:54.144Z,6.90
2017-12-26T16:11:21.597Z,6.90
2017-12-26T16:13:49.073Z,6.90
2017-12-26T16:16:16.537Z,6.80
2017-12-26T16:18:44.004Z,6.80
2017-12-26T16:21:11.624Z,6.80
2017-12-26T16:23:39.113Z,6.70
2017-12-26T16:26:06.572Z,6.70
2017-12-26T16:28:34.029Z,6.60
2017-12-26T16:31:01.488Z,6.60
2017-12-26T16:33:30.450Z,6.60
2017-12-26T16:35:58.010Z,6.60
2017-12-26T16:38:25.481Z,6.60
2017-12-26T16:40:53.077Z,6.50
2017-12-26T16:43:21.295Z,6.40
2017-12-26T16:45:48.769Z,6.40
2017-12-26T16:48:16.235Z,6.40
2017-12-26T16:50:44.612Z,6.30
2017-12-26T16:53:12.346Z,6.20
2017-12-26T16:55:39.810Z,6.20
2017-12-26T16:58:07.269Z,6.20
2017-12-26T17:00:34.767Z,6.20
2017-12-26T17:03:02.217Z,6.30
2017-12-26T17:05:29.676Z,6.30
2017-12-26T17:07:57.144Z,6.40
2017-12-26T17:10:25.388Z,6.40
2017-12-26T17:12:52.877Z,6.40
2017-12-26T17:15:20.325Z,6.40
2017-12-26T17:17:47.802Z,6.50
2017-12-26T17:20:16.109Z,6.50
2017-12-26T17:22:43.577Z,6.50
2017-12-26T17:25:11.029Z,6.60
2017-12-26T17:27:38.532Z,6.60
2017-12-26T17:30:05.976Z,6.60
2017-12-26T17:32:34.970Z,6.50
2017-12-26T17:35:02.425Z,6.50
2017-12-26T17:37:29.883Z,6.50
2017-12-26T17:39:57.341Z,6.60
2017-12-26T17:42:24.963Z,6.60
2017-12-26T17:44:52.496Z,6.50
2017-12-26T17:47:20.001Z,6.40
2017-12-26T17:49:47.478Z,6.40
2017-12-26T17:52:14.932Z,6.30
2017-12-26T17:54:42.401Z,6.30
2017-12-26T17:57:10.621Z,6.20
2017-12-26T17:59:38.105Z,6.20
2017-12-26T18:02:05.683Z,6.10
2017-12-26T18:04:33.144Z,6.20
2017-12-26T18:07:00.614Z,6.10
2017-12-26T18:09:28.843Z,6.10
2017-12-26T18:11:56.300Z,6.10
2017-12-26T18:14:23.763Z,6.10
2017-12-26T18:16:51.242Z,6.10
2017-12-26T18:19:18.694Z,6.10
2017-12-26T18:21:47.693Z,6.10
2017-12-26T18:24:15.157Z,6.10
2017-12-26T18:26:43.389Z,6.10
2017-12-26T18:29:10.982Z,6.00
2017-12-26T18:31:38.696Z,6.00
2017-12-26T18:34:06.209Z,6.00
2017-12-26T18:36:33.667Z,6.00
2017-12-26T18:39:01.244Z,6.00
2017-12-26T18:41:29.464Z,5.90
2017-12-26T18:43:56.951Z,5.90
2017-12-26T18:46:24.407Z,6.00
2017-12-26T18:48:51.984Z,6.00
2017-12-26T18:51:20.216Z,6.00
2017-12-26T18:53:47.687Z,6.00
2017-12-26T18:56:15.145Z,6.00
2017-12-26T18:58:42.631Z,5.90
2017-12-26T19:01:10.844Z,6.00
2017-12-26T19:03:38.321Z,5.90
2017-12-26T19:06:05.768Z,5.80
2017-12-26T19:08:33.233Z,5.70
2017-12-26T19:11:00.708Z,5.50
2017-12-26T19:13:28.173Z,5.30
2017-12-26T19:15:55.633Z,5.30
2017-12-26T19:18:23.852Z,5.10
2017-12-26T19:20:51.376Z,5.10
2017-12-26T19:23:19.601Z,5.10
2017-12-26T19:25:47.076Z,5.10
2017-12-26T19:28:14.540Z,5.10
2017-12-26T19:30:42.000Z,5.10
2017-12-26T19:33:09.462Z,5.10
2017-12-26T19:35:36.924Z,5.10
2017-12-26T19:38:05.140Z,5.20
2017-12-26T19:40:32.634Z,5.20
2017-12-26T19:43:00.721Z,5.20
2017-12-26T19:45:28.180Z,5.20
2017-12-26T19:47:55.739Z,5.20
2017-12-26T19:50:23.221Z,5.30
2017-12-26T19:52:50.705Z,5.30
2017-12-26T19:55:18.175Z,5.30
2017-12-26T19:57:45.640Z,5.20
2017-12-26T20:00:13.103Z,5.20
2017-12-26T20:02:40.568Z,5.10
2017-12-26T20:05:08.030Z,5.00
2017-12-26T20:07:36.271Z,5.00
2017-12-26T20:10:03.846Z,5.00
2017-12-26T20:12:31.312Z,5.00
2017-12-26T20:14:58.772Z,5.00
2017-12-26T20:17:26.243Z,5.10
2017-12-26T20:19:53.692Z,5.00
2017-12-26T20:22:21.156Z,5.00
2017-12-26T20:24:48.716Z,5.00
2017-12-26T20:27:17.080Z,5.10
2017-12-26T20:29:44.652Z,5.10
2017-12-26T20:32:12.260Z,5.10
2017-12-26T20:34:39.753Z,5.10
2017-12-26T20:37:07.207Z,5.10
2017-12-26T20:39:34.858Z,5.10
2017-12-26T20:42:02.436Z,5.10
2017-12-26T20:44:31.422Z,5.30
2017-12-26T20:46:58.889Z,5.30
2017-12-26T20:49:26.356Z,5.30
2017-12-26T20:51:53.892Z,5.20
2017-12-26T20:54:21.448Z,5.20
2017-12-26T20:56:49.120Z,5.10
2017-12-26T20:59:16.581Z,5.00
2017-12-26T21:01:44.052Z,5.00
2017-12-26T21:04:12.292Z,4.90
2017-12-26T21:06:39.754Z,4.90
2017-12-26T21:09:07.224Z,4.80
2017-12-26T21:11:34.705Z,4.80
2017-12-26T21:14:03.060Z,4.70
2017-12-26T21:16:30.548Z,4.70
2017-12-26T21:18:58.784Z,4.70
2017-12-26T21:21:26.337Z,4.70
2017-12-26T21:23:53.800Z,4.70
2017-12-26T21:26:21.255Z,4.70
2017-12-26T21:28:48.757Z,4.70
2017-12-26T21:31:16.236Z,4.70
2017-12-26T21:33:43.705Z,4.70
2017-12-26T21:36:11.200Z,4.70
2017-12-26T21:38:38.658Z,4.70
2017-12-26T21:41:06.741Z,4.80
2017-12-26T21:43:35.080Z,4.80
2017-12-26T21:46:02.544Z,4.80
2017-12-26T21:48:30.015Z,4.80
2017-12-26T21:50:57.488Z,4.80
2017-12-26T21:53:25.711Z,4.90
2017-12-26T21:55:53.187Z,4.90
2017-12-26T21:58:20.646Z,4.90
2017-12-26T22:00:48.162Z,4.90
2017-12-26T22:03:15.630Z,4.90
2017-12-26T22:05:43.082Z,4.90
2017-12-26T22:08:10.574Z,4.80
2017-12-26T22:10:38.049Z,4.80
2017-12-26T22:13:11.304Z,4.80
2017-12-26T22:15:38.767Z,4.80
2017-12-26T22:18:06.244Z,4.90
2017-12-26T22:20:33.707Z,4.90
2017-12-26T22:23:02.036Z,4.90
2017-12-26T22:25:29.513Z,4.90
2017-12-26T22:27:57.042Z,4.90
2017-12-26T22:30:24.508Z,5.00
2017-12-26T22:32:51.965Z,4.90
2017-12-26T22:35:19.988Z,4.90
2017-12-26T22:37:47.460Z,4.90
2017-12-26T22:40:15.785Z,5.00
2017-12-26T22:42:43.254Z,5.00
2017-12-26T22:45:10.708Z,5.00
2017-12-26T22:47:38.245Z,5.00
2017-12-26T22:50:06.021Z,5.00
2017-12-26T22:52:33.512Z,5.10
2017-12-26T22:55:01.061Z,5.10
2017-12-26T22:57:28.527Z,5.10
2017-12-26T22:59:56.768Z,5.20
2017-12-26T23:02:24.248Z,5.20
2017-12-26T23:04:51.808Z,5.20
2017-12-26T23:07:19.278Z,5.20
2017-12-26T23:09:46.768Z,5.20
2017-12-26T23:12:14.236Z,5.20
2017-12-26T23:14:47.321Z,5.30
2017-12-26T23:17:20.484Z,5.20
2017-12-26T23:19:54.461Z,5.20
2017-12-26T23:22:22.092Z,5.20
2017-12-26T23:24:55.388Z,5.10
2017-12-26T23:27:43.731Z,5.10
2017-12-26T23:30:16.775Z,5.20
2017-12-26T23:32:50.716Z,5.20
2017-12-26T23:35:23.864Z,5.20
2017-12-26T23:38:06.208Z,5.20
2017-12-26T23:40:39.315Z,5.20
2017-12-26T23:43:12.413Z,5.20
2017-12-26T23:45:45.714Z,5.20
2017-12-26T23:48:32.921Z,5.20
2017-12-26T23:51:06.224Z,5.30
2017-12-26T23:53:39.562Z,5.30
2017-12-26T23:56:13.574Z,5.40
2017-12-26T23:58:47.528Z,5.40
